sensor_id;sensor_type;location;lat;lon;timestamp;P1;durP1;ratioP1;P2;durP2;ratioP2
36411;SDS011;22445;52.100;5.176;2024-02-23T00:01:39;11.38;;;1.65;;
36411;SDS011;22445;52.100;5.176;2024-02-23T00:04:04;9.70;;;1.90;;
36411;SDS011;22445;52.100;5.176;2024-02-23T00:06:32;6.50;;;1.65;;
36411;SDS011;22445;52.100;5.176;2024-02-23T00:08:58;15.93;;;2.10;;
36411;SDS011;22445;52.100;5.176;2024-02-23T00:11:23;10.82;;;2.22;;
36411;SDS011;22445;52.100;5.176;2024-02-23T00:13:49;8.98;;;2.17;;
36411;SDS011;22445;52.100;5.176;2024-02-23T00:16:14;13.02;;;1.75;;
36411;SDS011;22445;52.100;5.176;2024-02-23T00:18:40;11.43;;;1.92;;
36411;SDS011;22445;52.100;5.176;2024-02-23T00:21:06;8.68;;;1.23;;
36411;SDS011;22445;52.100;5.176;2024-02-23T00:23:31;12.73;;;2.47;;
36411;SDS011;22445;52.100;5.176;2024-02-23T00:25:57;6.03;;;1.73;;
36411;SDS011;22445;52.100;5.176;2024-02-23T00:28:22;10.55;;;1.67;;
36411;SDS011;22445;52.100;5.176;2024-02-23T00:30:48;8.38;;;2.50;;
36411;SDS011;22445;52.100;5.176;2024-02-23T00:33:14;8.10;;;1.88;;
36411;SDS011;22445;52.100;5.176;2024-02-23T00:35:39;7.97;;;1.58;;
36411;SDS011;22445;52.100;5.176;2024-02-23T00:38:05;9.40;;;1.85;;
36411;SDS011;22445;52.100;5.176;2024-02-23T00:40:32;12.45;;;1.80;;
36411;SDS011;22445;52.100;5.176;2024-02-23T00:42:58;8.93;;;1.48;;
36411;SDS011;22445;52.100;5.176;2024-02-23T00:45:25;12.27;;;1.70;;
36411;SDS011;22445;52.100;5.176;2024-02-23T00:47:50;9.90;;;1.52;;
36411;SDS011;22445;52.100;5.176;2024-02-23T00:50:16;10.30;;;1.63;;
36411;SDS011;22445;52.100;5.176;2024-02-23T00:52:42;8.60;;;1.58;;
36411;SDS011;22445;52.100;5.176;2024-02-23T00:55:08;7.30;;;1.45;;
36411;SDS011;22445;52.100;5.176;2024-02-23T00:57:34;7.72;;;1.15;;
36411;SDS011;22445;52.100;5.176;2024-02-23T01:00:00;4.15;;;1.30;;
36411;SDS011;22445;52.100;5.176;2024-02-23T01:02:28;6.93;;;1.60;;
36411;SDS011;22445;52.100;5.176;2024-02-23T01:04:54;7.07;;;0.90;;
36411;SDS011;22445;52.100;5.176;2024-02-23T01:07:22;5.47;;;0.60;;
36411;SDS011;22445;52.100;5.176;2024-02-23T01:09:48;4.68;;;1.25;;
36411;SDS011;22445;52.100;5.176;2024-02-23T01:12:13;2.85;;;0.50;;
36411;SDS011;22445;52.100;5.176;2024-02-23T01:14:39;4.78;;;1.17;;
36411;SDS011;22445;52.100;5.176;2024-02-23T01:17:04;5.15;;;0.90;;
36411;SDS011;22445;52.100;5.176;2024-02-23T01:19:30;14.43;;;0.75;;
36411;SDS011;22445;52.100;5.176;2024-02-23T01:21:56;2.90;;;0.70;;
36411;SDS011;22445;52.100;5.176;2024-02-23T01:24:27;3.03;;;0.98;;
36411;SDS011;22445;52.100;5.176;2024-02-23T01:26:57;5.75;;;0.88;;
36411;SDS011;22445;52.100;5.176;2024-02-23T01:29:23;5.28;;;0.80;;
36411;SDS011;22445;52.100;5.176;2024-02-23T01:31:50;10.60;;;1.67;;
36411;SDS011;22445;52.100;5.176;2024-02-23T01:34:16;5.53;;;0.90;;
36411;SDS011;22445;52.100;5.176;2024-02-23T01:36:42;7.97;;;1.17;;
36411;SDS011;22445;52.100;5.176;2024-02-23T01:39:09;6.68;;;1.10;;
36411;SDS011;22445;52.100;5.176;2024-02-23T01:41:36;5.78;;;1.30;;
36411;SDS011;22445;52.100;5.176;2024-02-23T01:44:01;13.43;;;2.00;;
36411;SDS011;22445;52.100;5.176;2024-02-23T01:46:27;8.65;;;1.42;;
36411;SDS011;22445;52.100;5.176;2024-02-23T01:48:53;5.30;;;1.23;;
36411;SDS011;22445;52.100;5.176;2024-02-23T01:51:19;9.55;;;1.40;;
36411;SDS011;22445;52.100;5.176;2024-02-23T01:53:45;8.27;;;1.50;;
36411;SDS011;22445;52.100;5.176;2024-02-23T01:56:10;7.30;;;1.25;;
36411;SDS011;22445;52.100;5.176;2024-02-23T01:58:37;8.70;;;1.33;;
36411;SDS011;22445;52.100;5.176;2024-02-23T02:01:03;7.53;;;1.33;;
36411;SDS011;22445;52.100;5.176;2024-02-23T02:03:28;6.78;;;1.30;;
36411;SDS011;22445;52.100;5.176;2024-02-23T02:05:55;9.52;;;2.13;;
36411;SDS011;22445;52.100;5.176;2024-02-23T02:08:24;12.23;;;1.88;;
36411;SDS011;22445;52.100;5.176;2024-02-23T02:10:50;7.03;;;1.08;;
36411;SDS011;22445;52.100;5.176;2024-02-23T02:13:16;8.73;;;1.17;;
36411;SDS011;22445;52.100;5.176;2024-02-23T02:15:42;7.93;;;1.13;;
36411;SDS011;22445;52.100;5.176;2024-02-23T02:18:09;10.52;;;1.30;;
36411;SDS011;22445;52.100;5.176;2024-02-23T02:20:35;16.00;;;1.52;;
36411;SDS011;22445;52.100;5.176;2024-02-23T02:23:02;5.47;;;1.15;;
36411;SDS011;22445;52.100;5.176;2024-02-23T02:25:28;4.35;;;0.93;;
36411;SDS011;22445;52.100;5.176;2024-02-23T02:27:53;6.20;;;1.05;;
36411;SDS011;22445;52.100;5.176;2024-02-23T02:30:19;8.30;;;1.50;;
36411;SDS011;22445;52.100;5.176;2024-02-23T02:32:45;8.50;;;1.58;;
36411;SDS011;22445;52.100;5.176;2024-02-23T02:35:10;4.80;;;0.95;;
36411;SDS011;22445;52.100;5.176;2024-02-23T02:37:37;4.82;;;1.23;;
36411;SDS011;22445;52.100;5.176;2024-02-23T02:40:03;5.25;;;1.67;;
36411;SDS011;22445;52.100;5.176;2024-02-23T02:42:29;5.75;;;1.10;;
36411;SDS011;22445;52.100;5.176;2024-02-23T02:44:55;8.88;;;1.35;;
36411;SDS011;22445;52.100;5.176;2024-02-23T02:47:21;6.45;;;1.20;;
36411;SDS011;22445;52.100;5.176;2024-02-23T02:49:46;8.95;;;1.17;;
36411;SDS011;22445;52.100;5.176;2024-02-23T02:52:12;12.50;;;1.15;;
36411;SDS011;22445;52.100;5.176;2024-02-23T02:54:38;10.77;;;1.95;;
36411;SDS011;22445;52.100;5.176;2024-02-23T02:57:03;7.53;;;1.67;;
36411;SDS011;22445;52.100;5.176;2024-02-23T02:59:29;12.80;;;1.42;;
36411;SDS011;22445;52.100;5.176;2024-02-23T03:01:56;8.57;;;1.45;;
36411;SDS011;22445;52.100;5.176;2024-02-23T03:04:22;8.93;;;1.45;;
36411;SDS011;22445;52.100;5.176;2024-02-23T03:06:47;6.38;;;1.55;;
36411;SDS011;22445;52.100;5.176;2024-02-23T03:09:13;4.18;;;1.13;;
36411;SDS011;22445;52.100;5.176;2024-02-23T03:11:39;6.93;;;1.63;;
36411;SDS011;22445;52.100;5.176;2024-02-23T03:14:04;5.43;;;1.42;;
36411;SDS011;22445;52.100;5.176;2024-02-23T03:16:30;8.45;;;1.65;;
36411;SDS011;22445;52.100;5.176;2024-02-23T03:18:56;6.68;;;1.80;;
36411;SDS011;22445;52.100;5.176;2024-02-23T03:21:22;4.13;;;1.63;;
36411;SDS011;22445;52.100;5.176;2024-02-23T03:23:47;6.78;;;1.63;;
36411;SDS011;22445;52.100;5.176;2024-02-23T03:26:13;9.32;;;1.88;;
36411;SDS011;22445;52.100;5.176;2024-02-23T03:28:42;3.15;;;1.33;;
36411;SDS011;22445;52.100;5.176;2024-02-23T03:31:07;9.93;;;1.33;;
36411;SDS011;22445;52.100;5.176;2024-02-23T03:33:33;7.20;;;1.50;;
36411;SDS011;22445;52.100;5.176;2024-02-23T03:35:59;8.68;;;2.13;;
36411;SDS011;22445;52.100;5.176;2024-02-23T03:38:24;8.27;;;1.50;;
36411;SDS011;22445;52.100;5.176;2024-02-23T03:40:50;7.25;;;1.40;;
36411;SDS011;22445;52.100;5.176;2024-02-23T03:43:16;8.98;;;1.80;;
36411;SDS011;22445;52.100;5.176;2024-02-23T03:45:41;5.28;;;1.58;;
36411;SDS011;22445;52.100;5.176;2024-02-23T03:48:07;5.65;;;1.90;;
36411;SDS011;22445;52.100;5.176;2024-02-23T03:50:32;7.15;;;1.77;;
36411;SDS011;22445;52.100;5.176;2024-02-23T03:52:58;8.45;;;2.30;;
36411;SDS011;22445;52.100;5.176;2024-02-23T03:55:23;13.40;;;1.33;;
36411;SDS011;22445;52.100;5.176;2024-02-23T03:57:49;6.18;;;1.95;;
36411;SDS011;22445;52.100;5.176;2024-02-23T04:00:15;8.77;;;2.25;;
36411;SDS011;22445;52.100;5.176;2024-02-23T04:02:41;8.07;;;1.98;;
36411;SDS011;22445;52.100;5.176;2024-02-23T04:05:06;7.03;;;1.52;;
36411;SDS011;22445;52.100;5.176;2024-02-23T04:07:32;3.13;;;1.80;;
36411;SDS011;22445;52.100;5.176;2024-02-23T04:09:58;8.73;;;1.50;;
36411;SDS011;22445;52.100;5.176;2024-02-23T04:12:24;6.07;;;1.38;;
36411;SDS011;22445;52.100;5.176;2024-02-23T04:14:49;5.10;;;1.35;;
36411;SDS011;22445;52.100;5.176;2024-02-23T04:17:15;8.25;;;1.50;;
36411;SDS011;22445;52.100;5.176;2024-02-23T04:19:41;8.27;;;1.17;;
36411;SDS011;22445;52.100;5.176;2024-02-23T04:22:08;7.00;;;1.77;;
36411;SDS011;22445;52.100;5.176;2024-02-23T04:24:35;8.57;;;2.08;;
36411;SDS011;22445;52.100;5.176;2024-02-23T04:27:01;7.43;;;1.90;;
36411;SDS011;22445;52.100;5.176;2024-02-23T04:29:27;10.55;;;1.92;;
36411;SDS011;22445;52.100;5.176;2024-02-23T04:31:53;7.30;;;1.67;;
36411;SDS011;22445;52.100;5.176;2024-02-23T04:34:18;8.27;;;1.60;;
36411;SDS011;22445;52.100;5.176;2024-02-23T04:36:44;9.23;;;2.17;;
36411;SDS011;22445;52.100;5.176;2024-02-23T04:39:09;11.45;;;2.25;;
36411;SDS011;22445;52.100;5.176;2024-02-23T04:41:35;4.80;;;1.70;;
36411;SDS011;22445;52.100;5.176;2024-02-23T04:44:00;13.93;;;2.22;;
36411;SDS011;22445;52.100;5.176;2024-02-23T04:46:27;7.95;;;2.00;;
36411;SDS011;22445;52.100;5.176;2024-02-23T04:48:52;4.68;;;1.90;;
36411;SDS011;22445;52.100;5.176;2024-02-23T04:51:18;7.97;;;2.42;;
36411;SDS011;22445;52.100;5.176;2024-02-23T04:53:44;8.93;;;2.17;;
36411;SDS011;22445;52.100;5.176;2024-02-23T04:56:09;9.05;;;2.05;;
36411;SDS011;22445;52.100;5.176;2024-02-23T04:58:35;9.73;;;2.17;;
36411;SDS011;22445;52.100;5.176;2024-02-23T05:01:02;8.57;;;2.83;;
36411;SDS011;22445;52.100;5.176;2024-02-23T05:03:28;5.07;;;1.85;;
36411;SDS011;22445;52.100;5.176;2024-02-23T05:05:54;6.97;;;2.15;;
36411;SDS011;22445;52.100;5.176;2024-02-23T05:08:20;9.40;;;2.42;;
36411;SDS011;22445;52.100;5.176;2024-02-23T05:10:46;9.30;;;2.25;;
36411;SDS011;22445;52.100;5.176;2024-02-23T05:13:12;8.88;;;2.65;;
36411;SDS011;22445;52.100;5.176;2024-02-23T05:15:38;7.70;;;1.85;;
36411;SDS011;22445;52.100;5.176;2024-02-23T05:18:04;7.53;;;2.53;;
36411;SDS011;22445;52.100;5.176;2024-02-23T05:20:30;7.40;;;1.80;;
36411;SDS011;22445;52.100;5.176;2024-02-23T05:22:55;7.53;;;2.22;;
36411;SDS011;22445;52.100;5.176;2024-02-23T05:25:20;6.80;;;2.00;;
36411;SDS011;22445;52.100;5.176;2024-02-23T05:27:46;6.60;;;2.22;;
36411;SDS011;22445;52.100;5.176;2024-02-23T05:30:12;8.63;;;2.30;;
36411;SDS011;22445;52.100;5.176;2024-02-23T05:32:38;7.32;;;2.50;;
36411;SDS011;22445;52.100;5.176;2024-02-23T05:35:03;4.30;;;2.15;;
36411;SDS011;22445;52.100;5.176;2024-02-23T05:37:29;9.15;;;2.15;;
36411;SDS011;22445;52.100;5.176;2024-02-23T05:39:55;6.60;;;2.20;;
36411;SDS011;22445;52.100;5.176;2024-02-23T05:42:21;6.90;;;2.50;;
36411;SDS011;22445;52.100;5.176;2024-02-23T05:44:46;6.07;;;2.40;;
36411;SDS011;22445;52.100;5.176;2024-02-23T05:47:13;5.45;;;2.40;;
36411;SDS011;22445;52.100;5.176;2024-02-23T05:49:39;5.97;;;2.63;;
36411;SDS011;22445;52.100;5.176;2024-02-23T05:52:05;10.18;;;2.47;;
36411;SDS011;22445;52.100;5.176;2024-02-23T05:54:31;6.20;;;2.10;;
36411;SDS011;22445;52.100;5.176;2024-02-23T05:56:56;7.15;;;2.80;;
36411;SDS011;22445;52.100;5.176;2024-02-23T05:59:22;8.10;;;2.40;;
36411;SDS011;22445;52.100;5.176;2024-02-23T06:01:48;4.72;;;2.33;;
36411;SDS011;22445;52.100;5.176;2024-02-23T06:04:13;6.22;;;2.10;;
36411;SDS011;22445;52.100;5.176;2024-02-23T06:06:42;4.63;;;2.22;;
36411;SDS011;22445;52.100;5.176;2024-02-23T06:09:10;7.43;;;3.15;;
36411;SDS011;22445;52.100;5.176;2024-02-23T06:11:36;4.78;;;2.22;;
36411;SDS011;22445;52.100;5.176;2024-02-23T06:14:01;5.13;;;2.42;;
36411;SDS011;22445;52.100;5.176;2024-02-23T06:16:28;5.47;;;2.30;;
36411;SDS011;22445;52.100;5.176;2024-02-23T06:18:53;5.93;;;2.13;;
36411;SDS011;22445;52.100;5.176;2024-02-23T06:21:19;6.40;;;2.25;;
36411;SDS011;22445;52.100;5.176;2024-02-23T06:23:44;8.70;;;2.50;;
36411;SDS011;22445;52.100;5.176;2024-02-23T06:26:10;8.27;;;2.10;;
36411;SDS011;22445;52.100;5.176;2024-02-23T06:28:36;4.90;;;1.92;;
36411;SDS011;22445;52.100;5.176;2024-02-23T06:31:05;9.18;;;2.10;;
36411;SDS011;22445;52.100;5.176;2024-02-23T06:33:31;2.97;;;1.48;;
36411;SDS011;22445;52.100;5.176;2024-02-23T06:35:56;4.22;;;2.20;;
36411;SDS011;22445;52.100;5.176;2024-02-23T06:38:22;5.43;;;2.03;;
36411;SDS011;22445;52.100;5.176;2024-02-23T06:40:48;5.45;;;1.70;;
36411;SDS011;22445;52.100;5.176;2024-02-23T06:43:13;3.20;;;1.40;;
36411;SDS011;22445;52.100;5.176;2024-02-23T06:45:39;4.68;;;1.48;;
36411;SDS011;22445;52.100;5.176;2024-02-23T06:48:05;5.20;;;1.25;;
36411;SDS011;22445;52.100;5.176;2024-02-23T06:50:31;4.20;;;1.70;;
36411;SDS011;22445;52.100;5.176;2024-02-23T06:52:56;3.13;;;1.15;;
36411;SDS011;22445;52.100;5.176;2024-02-23T06:55:22;4.20;;;1.30;;
36411;SDS011;22445;52.100;5.176;2024-02-23T06:57:47;3.83;;;1.58;;
36411;SDS011;22445;52.100;5.176;2024-02-23T07:00:13;4.50;;;1.38;;
36411;SDS011;22445;52.100;5.176;2024-02-23T07:02:39;4.82;;;1.50;;
36411;SDS011;22445;52.100;5.176;2024-02-23T07:05:05;5.38;;;1.38;;
36411;SDS011;22445;52.100;5.176;2024-02-23T07:07:32;3.97;;;1.55;;
36411;SDS011;22445;52.100;5.176;2024-02-23T07:10:01;3.72;;;0.93;;
36411;SDS011;22445;52.100;5.176;2024-02-23T07:12:27;6.50;;;1.20;;
36411;SDS011;22445;52.100;5.176;2024-02-23T07:14:56;8.15;;;1.95;;
36411;SDS011;22445;52.100;5.176;2024-02-23T07:17:22;5.43;;;1.63;;
36411;SDS011;22445;52.100;5.176;2024-02-23T07:19:48;5.60;;;1.45;;
36411;SDS011;22445;52.100;5.176;2024-02-23T07:22:13;3.20;;;1.20;;
36411;SDS011;22445;52.100;5.176;2024-02-23T07:24:41;5.80;;;1.30;;
36411;SDS011;22445;52.100;5.176;2024-02-23T07:27:07;7.65;;;1.33;;
36411;SDS011;22445;52.100;5.176;2024-02-23T07:29:32;3.72;;;1.00;;
36411;SDS011;22445;52.100;5.176;2024-02-23T07:31:58;3.40;;;1.10;;
36411;SDS011;22445;52.100;5.176;2024-02-23T07:34:23;2.38;;;0.88;;
36411;SDS011;22445;52.100;5.176;2024-02-23T07:36:51;6.78;;;0.82;;
36411;SDS011;22445;52.100;5.176;2024-02-23T07:39:17;5.03;;;1.20;;
36411;SDS011;22445;52.100;5.176;2024-02-23T07:41:43;2.88;;;0.98;;
36411;SDS011;22445;52.100;5.176;2024-02-23T07:44:08;3.40;;;1.00;;
36411;SDS011;22445;52.100;5.176;2024-02-23T07:46:34;4.35;;;0.95;;
36411;SDS011;22445;52.100;5.176;2024-02-23T07:48:59;7.97;;;1.23;;
36411;SDS011;22445;52.100;5.176;2024-02-23T07:51:25;4.68;;;1.25;;
36411;SDS011;22445;52.100;5.176;2024-02-23T07:53:50;4.78;;;1.10;;
36411;SDS011;22445;52.100;5.176;2024-02-23T07:56:16;4.10;;;0.80;;
36411;SDS011;22445;52.100;5.176;2024-02-23T07:58:42;5.28;;;0.98;;
36411;SDS011;22445;52.100;5.176;2024-02-23T08:01:07;6.10;;;0.95;;
36411;SDS011;22445;52.100;5.176;2024-02-23T08:03:33;7.25;;;1.20;;
36411;SDS011;22445;52.100;5.176;2024-02-23T08:05:59;8.93;;;0.98;;
36411;SDS011;22445;52.100;5.176;2024-02-23T08:08:24;8.73;;;1.63;;
36411;SDS011;22445;52.100;5.176;2024-02-23T08:10:52;7.43;;;1.15;;
36411;SDS011;22445;52.100;5.176;2024-02-23T08:13:17;4.70;;;1.23;;
36411;SDS011;22445;52.100;5.176;2024-02-23T08:15:43;4.43;;;1.05;;
36411;SDS011;22445;52.100;5.176;2024-02-23T08:18:09;7.72;;;1.05;;
36411;SDS011;22445;52.100;5.176;2024-02-23T08:20:35;8.18;;;1.13;;
36411;SDS011;22445;52.100;5.176;2024-02-23T08:23:01;5.38;;;1.23;;
36411;SDS011;22445;52.100;5.176;2024-02-23T08:25:27;8.93;;;1.52;;
36411;SDS011;22445;52.100;5.176;2024-02-23T08:27:55;5.18;;;1.08;;
36411;SDS011;22445;52.100;5.176;2024-02-23T08:30:21;6.63;;;1.85;;
36411;SDS011;22445;52.100;5.176;2024-02-23T08:32:47;2.67;;;1.20;;
36411;SDS011;22445;52.100;5.176;2024-02-23T08:35:13;5.53;;;1.48;;
36411;SDS011;22445;52.100;5.176;2024-02-23T08:37:39;4.68;;;1.05;;
36411;SDS011;22445;52.100;5.176;2024-02-23T08:40:04;6.70;;;1.77;;
36411;SDS011;22445;52.100;5.176;2024-02-23T08:42:31;3.63;;;1.40;;
36411;SDS011;22445;52.100;5.176;2024-02-23T08:44:57;7.40;;;1.63;;
36411;SDS011;22445;52.100;5.176;2024-02-23T08:47:22;4.65;;;1.35;;
36411;SDS011;22445;52.100;5.176;2024-02-23T08:49:48;7.63;;;2.10;;
36411;SDS011;22445;52.100;5.176;2024-02-23T08:52:13;5.93;;;1.77;;
36411;SDS011;22445;52.100;5.176;2024-02-23T08:54:39;9.38;;;1.50;;
36411;SDS011;22445;52.100;5.176;2024-02-23T08:57:05;5.57;;;2.08;;
36411;SDS011;22445;52.100;5.176;2024-02-23T08:59:30;10.55;;;1.88;;
36411;SDS011;22445;52.100;5.176;2024-02-23T09:01:56;6.38;;;1.50;;
36411;SDS011;22445;52.100;5.176;2024-02-23T09:04:21;6.60;;;1.70;;
36411;SDS011;22445;52.100;5.176;2024-02-23T09:06:47;6.88;;;1.73;;
36411;SDS011;22445;52.100;5.176;2024-02-23T09:09:15;4.18;;;1.55;;
36411;SDS011;22445;52.100;5.176;2024-02-23T09:11:41;4.53;;;1.33;;
36411;SDS011;22445;52.100;5.176;2024-02-23T09:14:07;8.20;;;1.60;;
36411;SDS011;22445;52.100;5.176;2024-02-23T09:16:33;4.78;;;1.27;;
36411;SDS011;22445;52.100;5.176;2024-02-23T09:18:58;5.32;;;1.70;;
36411;SDS011;22445;52.100;5.176;2024-02-23T09:21:24;7.70;;;1.83;;
36411;SDS011;22445;52.100;5.176;2024-02-23T09:23:49;5.40;;;1.65;;
36411;SDS011;22445;52.100;5.176;2024-02-23T09:26:15;8.05;;;1.40;;
36411;SDS011;22445;52.100;5.176;2024-02-23T09:28:41;8.80;;;1.92;;
36411;SDS011;22445;52.100;5.176;2024-02-23T09:31:07;6.15;;;1.65;;
36411;SDS011;22445;52.100;5.176;2024-02-23T09:33:33;2.30;;;1.25;;
36411;SDS011;22445;52.100;5.176;2024-02-23T09:35:58;6.50;;;1.65;;
36411;SDS011;22445;52.100;5.176;2024-02-23T09:38:24;9.52;;;1.83;;
36411;SDS011;22445;52.100;5.176;2024-02-23T09:40:51;5.57;;;1.08;;
36411;SDS011;22445;52.100;5.176;2024-02-23T09:43:16;3.38;;;1.30;;
36411;SDS011;22445;52.100;5.176;2024-02-23T09:45:42;7.60;;;1.45;;
36411;SDS011;22445;52.100;5.176;2024-02-23T09:48:08;3.38;;;1.20;;
36411;SDS011;22445;52.100;5.176;2024-02-23T09:50:37;3.53;;;0.90;;
36411;SDS011;22445;52.100;5.176;2024-02-23T09:53:03;3.50;;;0.80;;
36411;SDS011;22445;52.100;5.176;2024-02-23T09:55:29;3.40;;;1.25;;
36411;SDS011;22445;52.100;5.176;2024-02-23T09:57:55;2.58;;;1.00;;
36411;SDS011;22445;52.100;5.176;2024-02-23T10:00:23;5.85;;;1.52;;
36411;SDS011;22445;52.100;5.176;2024-02-23T10:02:49;5.38;;;1.20;;
36411;SDS011;22445;52.100;5.176;2024-02-23T10:05:15;7.00;;;1.30;;
36411;SDS011;22445;52.100;5.176;2024-02-23T10:07:42;4.38;;;1.20;;
36411;SDS011;22445;52.100;5.176;2024-02-23T10:10:09;8.18;;;1.20;;
36411;SDS011;22445;52.100;5.176;2024-02-23T10:12:36;4.53;;;1.60;;
36411;SDS011;22445;52.100;5.176;2024-02-23T10:15:03;3.05;;;1.20;;
36411;SDS011;22445;52.100;5.176;2024-02-23T10:17:32;7.95;;;1.40;;
36411;SDS011;22445;52.100;5.176;2024-02-23T10:20:01;5.10;;;0.95;;
36411;SDS011;22445;52.100;5.176;2024-02-23T10:22:30;5.38;;;1.38;;
36411;SDS011;22445;52.100;5.176;2024-02-23T10:24:56;5.60;;;2.53;;
36411;SDS011;22445;52.100;5.176;2024-02-23T10:27:22;4.00;;;0.95;;
36411;SDS011;22445;52.100;5.176;2024-02-23T10:29:51;4.28;;;1.40;;
36411;SDS011;22445;52.100;5.176;2024-02-23T10:32:16;6.88;;;1.25;;
36411;SDS011;22445;52.100;5.176;2024-02-23T10:34:43;2.97;;;1.10;;
36411;SDS011;22445;52.100;5.176;2024-02-23T10:37:09;4.43;;;1.35;;
36411;SDS011;22445;52.100;5.176;2024-02-23T10:39:38;3.17;;;1.55;;
36411;SDS011;22445;52.100;5.176;2024-02-23T10:42:04;4.07;;;1.40;;
36411;SDS011;22445;52.100;5.176;2024-02-23T10:44:30;5.60;;;1.35;;
36411;SDS011;22445;52.100;5.176;2024-02-23T10:46:57;4.25;;;1.70;;
36411;SDS011;22445;52.100;5.176;2024-02-23T10:49:24;6.15;;;1.52;;
36411;SDS011;22445;52.100;5.176;2024-02-23T10:51:52;5.93;;;1.67;;
36411;SDS011;22445;52.100;5.176;2024-02-23T10:54:19;2.92;;;1.33;;
36411;SDS011;22445;52.100;5.176;2024-02-23T10:56:46;2.85;;;1.40;;
36411;SDS011;22445;52.100;5.176;2024-02-23T10:59:13;6.90;;;1.45;;
36411;SDS011;22445;52.100;5.176;2024-02-23T11:01:42;4.85;;;1.30;;
36411;SDS011;22445;52.100;5.176;2024-02-23T11:04:08;4.80;;;1.13;;
36411;SDS011;22445;52.100;5.176;2024-02-23T11:06:34;4.72;;;1.20;;
36411;SDS011;22445;52.100;5.176;2024-02-23T11:09:06;5.43;;;1.02;;
36411;SDS011;22445;52.100;5.176;2024-02-23T11:11:33;3.45;;;1.40;;
36411;SDS011;22445;52.100;5.176;2024-02-23T11:13:59;5.95;;;1.40;;
36411;SDS011;22445;52.100;5.176;2024-02-23T11:16:28;3.75;;;1.80;;
36411;SDS011;22445;52.100;5.176;2024-02-23T11:19:06;6.47;;;1.25;;
36411;SDS011;22445;52.100;5.176;2024-02-23T11:21:37;4.25;;;1.30;;
36411;SDS011;22445;52.100;5.176;2024-02-23T11:24:04;3.92;;;1.40;;
36411;SDS011;22445;52.100;5.176;2024-02-23T11:26:30;6.78;;;1.80;;
36411;SDS011;22445;52.100;5.176;2024-02-23T11:28:57;4.35;;;1.20;;
36411;SDS011;22445;52.100;5.176;2024-02-23T11:31:24;3.95;;;1.40;;
36411;SDS011;22445;52.100;5.176;2024-02-23T11:33:54;1.75;;;1.00;;
36411;SDS011;22445;52.100;5.176;2024-02-23T11:39:09;7.20;;;1.30;;
36411;SDS011;22445;52.100;5.176;2024-02-23T11:41:37;4.68;;;1.45;;
36411;SDS011;22445;52.100;5.176;2024-02-23T11:44:03;8.13;;;1.58;;
36411;SDS011;22445;52.100;5.176;2024-02-23T11:46:29;5.00;;;1.23;;
36411;SDS011;22445;52.100;5.176;2024-02-23T11:48:54;4.25;;;1.27;;
36411;SDS011;22445;52.100;5.176;2024-02-23T11:51:20;5.85;;;1.58;;
36411;SDS011;22445;52.100;5.176;2024-02-23T11:53:47;5.10;;;1.42;;
36411;SDS011;22445;52.100;5.176;2024-02-23T11:56:13;3.97;;;0.98;;
36411;SDS011;22445;52.100;5.176;2024-02-23T11:58:39;5.28;;;1.77;;
36411;SDS011;22445;52.100;5.176;2024-02-23T12:01:05;6.00;;;1.50;;
36411;SDS011;22445;52.100;5.176;2024-02-23T12:03:32;4.93;;;1.42;;
36411;SDS011;22445;52.100;5.176;2024-02-23T12:05:58;1.98;;;1.00;;
36411;SDS011;22445;52.100;5.176;2024-02-23T12:08:27;6.70;;;1.45;;
36411;SDS011;22445;52.100;5.176;2024-02-23T12:10:55;11.65;;;1.55;;
36411;SDS011;22445;52.100;5.176;2024-02-23T12:13:21;4.30;;;1.60;;
36411;SDS011;22445;52.100;5.176;2024-02-23T12:15:48;3.80;;;0.95;;
36411;SDS011;22445;52.100;5.176;2024-02-23T12:18:14;5.07;;;1.00;;
36411;SDS011;22445;52.100;5.176;2024-02-23T12:20:42;3.88;;;1.20;;
36411;SDS011;22445;52.100;5.176;2024-02-23T12:23:08;5.47;;;1.80;;
36411;SDS011;22445;52.100;5.176;2024-02-23T12:25:35;4.03;;;1.48;;
36411;SDS011;22445;52.100;5.176;2024-02-23T12:28:00;5.70;;;1.17;;
36411;SDS011;22445;52.100;5.176;2024-02-23T12:30:26;4.68;;;1.00;;
36411;SDS011;22445;52.100;5.176;2024-02-23T12:33:12;4.18;;;1.20;;
36411;SDS011;22445;52.100;5.176;2024-02-23T12:35:40;2.70;;;0.70;;
36411;SDS011;22445;52.100;5.176;2024-02-23T12:38:06;7.15;;;1.48;;
36411;SDS011;22445;52.100;5.176;2024-02-23T12:40:32;3.83;;;1.27;;
36411;SDS011;22445;52.100;5.176;2024-02-23T12:42:57;3.40;;;0.88;;
36411;SDS011;22445;52.100;5.176;2024-02-23T12:45:23;4.40;;;1.05;;
36411;SDS011;22445;52.100;5.176;2024-02-23T12:47:49;4.00;;;1.50;;
36411;SDS011;22445;52.100;5.176;2024-02-23T12:50:14;3.28;;;0.90;;
36411;SDS011;22445;52.100;5.176;2024-02-23T12:52:40;5.03;;;1.20;;
36411;SDS011;22445;52.100;5.176;2024-02-23T12:55:06;7.45;;;1.30;;
36411;SDS011;22445;52.100;5.176;2024-02-23T12:57:33;4.80;;;1.33;;
36411;SDS011;22445;52.100;5.176;2024-02-23T12:59:58;8.00;;;1.00;;
36411;SDS011;22445;52.100;5.176;2024-02-23T13:02:24;6.47;;;1.00;;
36411;SDS011;22445;52.100;5.176;2024-02-23T13:04:50;3.90;;;0.73;;
36411;SDS011;22445;52.100;5.176;2024-02-23T13:07:16;2.50;;;0.90;;
36411;SDS011;22445;52.100;5.176;2024-02-23T13:09:44;6.00;;;1.00;;
36411;SDS011;22445;52.100;5.176;2024-02-23T13:12:10;2.70;;;0.90;;
36411;SDS011;22445;52.100;5.176;2024-02-23T13:14:36;4.60;;;0.80;;
36411;SDS011;22445;52.100;5.176;2024-02-23T13:17:01;3.70;;;1.33;;
36411;SDS011;22445;52.100;5.176;2024-02-23T13:19:28;3.42;;;0.88;;
36411;SDS011;22445;52.100;5.176;2024-02-23T13:21:54;2.88;;;0.98;;
36411;SDS011;22445;52.100;5.176;2024-02-23T13:24:19;2.40;;;1.00;;
36411;SDS011;22445;52.100;5.176;2024-02-23T13:26:46;5.07;;;1.17;;
36411;SDS011;22445;52.100;5.176;2024-02-23T13:29:11;3.33;;;0.80;;
36411;SDS011;22445;52.100;5.176;2024-02-23T13:31:37;4.88;;;1.30;;
36411;SDS011;22445;52.100;5.176;2024-02-23T13:34:03;4.22;;;1.08;;
36411;SDS011;22445;52.100;5.176;2024-02-23T13:36:29;3.65;;;1.00;;
36411;SDS011;22445;52.100;5.176;2024-02-23T13:38:54;2.42;;;0.90;;
36411;SDS011;22445;52.100;5.176;2024-02-23T13:41:20;4.15;;;1.27;;
36411;SDS011;22445;52.100;5.176;2024-02-23T13:43:45;3.40;;;0.95;;
36411;SDS011;22445;52.100;5.176;2024-02-23T13:46:11;2.15;;;0.98;;
36411;SDS011;22445;52.100;5.176;2024-02-23T13:48:37;4.72;;;0.60;;
36411;SDS011;22445;52.100;5.176;2024-02-23T13:51:02;6.25;;;1.23;;
36411;SDS011;22445;52.100;5.176;2024-02-23T13:53:30;2.58;;;0.80;;
36411;SDS011;22445;52.100;5.176;2024-02-23T13:55:56;2.85;;;0.88;;
36411;SDS011;22445;52.100;5.176;2024-02-23T13:58:22;2.25;;;0.80;;
36411;SDS011;22445;52.100;5.176;2024-02-23T14:00:47;3.78;;;1.02;;
36411;SDS011;22445;52.100;5.176;2024-02-23T14:03:17;1.63;;;0.55;;
36411;SDS011;22445;52.100;5.176;2024-02-23T14:05:46;1.80;;;0.80;;
36411;SDS011;22445;52.100;5.176;2024-02-23T14:08:12;3.03;;;0.90;;
36411;SDS011;22445;52.100;5.176;2024-02-23T14:10:38;2.25;;;0.50;;
36411;SDS011;22445;52.100;5.176;2024-02-23T14:13:05;1.20;;;1.00;;
36411;SDS011;22445;52.100;5.176;2024-02-23T14:15:30;3.00;;;0.75;;
36411;SDS011;22445;52.100;5.176;2024-02-23T14:17:57;1.83;;;0.90;;
36411;SDS011;22445;52.100;5.176;2024-02-23T14:20:23;2.08;;;0.63;;
36411;SDS011;22445;52.100;5.176;2024-02-23T14:22:48;3.22;;;1.10;;
36411;SDS011;22445;52.100;5.176;2024-02-23T14:25:15;2.28;;;1.23;;
36411;SDS011;22445;52.100;5.176;2024-02-23T14:27:41;2.55;;;0.55;;
36411;SDS011;22445;52.100;5.176;2024-02-23T14:30:06;1.45;;;0.50;;
36411;SDS011;22445;52.100;5.176;2024-02-23T14:32:33;1.17;;;0.40;;
36411;SDS011;22445;52.100;5.176;2024-02-23T14:35:01;1.70;;;0.50;;
36411;SDS011;22445;52.100;5.176;2024-02-23T14:37:28;1.55;;;0.40;;
36411;SDS011;22445;52.100;5.176;2024-02-23T14:39:54;1.40;;;0.63;;
36411;SDS011;22445;52.100;5.176;2024-02-23T14:42:20;2.33;;;0.70;;